sensor_id;sensor_type;location;lat;lon;timestamp;temperature;humidity
14741;DHT22;7462;53.530;9.414;2023-06-19T00:02:19;21.60;99.90
14741;DHT22;7462;53.530;9.414;2023-06-19T00:04:47;21.70;99.90
14741;DHT22;7462;53.530;9.414;2023-06-19T00:07:15;21.70;99.90
14741;DHT22;7462;53.530;9.414;2023-06-19T00:09:43;21.60;99.90
14741;DHT22;7462;53.530;9.414;2023-06-19T00:12:13;21.60;99.90
14741;DHT22;7462;53.530;9.414;2023-06-19T00:14:40;21.60;99.90
14741;DHT22;7462;53.530;9.414;2023-06-19T00:17:09;21.60;99.90
14741;DHT22;7462;53.530;9.414;2023-06-19T00:19:37;21.50;99.90
14741;DHT22;7462;53.530;9.414;2023-06-19T00:22:05;21.60;99.90
14741;DHT22;7462;53.530;9.414;2023-06-19T00:24:33;21.50;99.90
14741;DHT22;7462;53.530;9.414;2023-06-19T00:27:02;21.50;99.90
14741;DHT22;7462;53.530;9.414;2023-06-19T00:29:32;21.50;99.90
14741;DHT22;7462;53.530;9.414;2023-06-19T00:32:00;21.50;99.90
14741;DHT22;7462;53.530;9.414;2023-06-19T00:34:29;21.50;99.90
14741;DHT22;7462;53.530;9.414;2023-06-19T00:36:58;21.40;99.90
14741;DHT22;7462;53.530;9.414;2023-06-19T00:39:26;21.40;99.90
14741;DHT22;7462;53.530;9.414;2023-06-19T00:41:54;21.40;99.90
14741;DHT22;7462;53.530;9.414;2023-06-19T00:44:23;21.30;99.90
14741;DHT22;7462;53.530;9.414;2023-06-19T00:46:56;21.30;99.90
14741;DHT22;7462;53.530;9.414;2023-06-19T00:49:28;21.30;99.90
14741;DHT22;7462;53.530;9.414;2023-06-19T00:51:56;21.30;99.90
14741;DHT22;7462;53.530;9.414;2023-06-19T00:54:25;21.30;99.90
14741;DHT22;7462;53.530;9.414;2023-06-19T00:56:53;21.30;99.90
14741;DHT22;7462;53.530;9.414;2023-06-19T00:59:23;21.20;99.90
14741;DHT22;7462;53.530;9.414;2023-06-19T01:01:52;21.20;99.90
14741;DHT22;7462;53.530;9.414;2023-06-19T01:04:20;21.20;99.90
14741;DHT22;7462;53.530;9.414;2023-06-19T01:06:53;21.20;99.90
14741;DHT22;7462;53.530;9.414;2023-06-19T01:09:28;21.10;99.90
14741;DHT22;7462;53.530;9.414;2023-06-19T01:12:03;21.20;99.90
14741;DHT22;7462;53.530;9.414;2023-06-19T01:14:37;21.10;99.90
14741;DHT22;7462;53.530;9.414;2023-06-19T01:17:07;21.10;99.90
14741;DHT22;7462;53.530;9.414;2023-06-19T01:19:35;21.10;99.90
14741;DHT22;7462;53.530;9.414;2023-06-19T01:22:06;21.10;99.90
14741;DHT22;7462;53.530;9.414;2023-06-19T01:24:35;21.10;99.90
14741;DHT22;7462;53.530;9.414;2023-06-19T01:27:04;21.10;99.90
14741;DHT22;7462;53.530;9.414;2023-06-19T01:29:32;21.10;99.90
14741;DHT22;7462;53.530;9.414;2023-06-19T01:32:04;21.00;99.90
14741;DHT22;7462;53.530;9.414;2023-06-19T01:34:35;21.00;99.90
14741;DHT22;7462;53.530;9.414;2023-06-19T01:37:10;21.00;99.90
14741;DHT22;7462;53.530;9.414;2023-06-19T01:39:39;21.00;99.90
14741;DHT22;7462;53.530;9.414;2023-06-19T01:42:10;21.10;99.90
14741;DHT22;7462;53.530;9.414;2023-06-19T01:44:39;21.10;99.90
14741;DHT22;7462;53.530;9.414;2023-06-19T01:47:09;21.10;99.90
14741;DHT22;7462;53.530;9.414;2023-06-19T01:49:37;21.10;99.90
14741;DHT22;7462;53.530;9.414;2023-06-19T01:52:06;21.10;99.90
14741;DHT22;7462;53.530;9.414;2023-06-19T01:54:35;21.20;99.90
14741;DHT22;7462;53.530;9.414;2023-06-19T01:57:04;21.10;99.90
14741;DHT22;7462;53.530;9.414;2023-06-19T01:59:32;21.10;99.90
14741;DHT22;7462;53.530;9.414;2023-06-19T02:02:00;21.10;99.90
14741;DHT22;7462;53.530;9.414;2023-06-19T02:04:30;21.00;99.90
14741;DHT22;7462;53.530;9.414;2023-06-19T02:06:58;21.00;99.90
14741;DHT22;7462;53.530;9.414;2023-06-19T02:09:27;21.00;99.90
14741;DHT22;7462;53.530;9.414;2023-06-19T02:11:56;21.00;99.90
14741;DHT22;7462;53.530;9.414;2023-06-19T02:14:24;21.10;99.90
14741;DHT22;7462;53.530;9.414;2023-06-19T02:16:53;21.00;99.90
14741;DHT22;7462;53.530;9.414;2023-06-19T02:19:20;21.00;99.90
14741;DHT22;7462;53.530;9.414;2023-06-19T02:21:49;21.00;99.90
14741;DHT22;7462;53.530;9.414;2023-06-19T02:24:17;20.90;99.90
14741;DHT22;7462;53.530;9.414;2023-06-19T02:26:45;20.90;99.90
14741;DHT22;7462;53.530;9.414;2023-06-19T02:29:14;20.90;99.90
14741;DHT22;7462;53.530;9.414;2023-06-19T02:31:43;20.90;99.90
14741;DHT22;7462;53.530;9.414;2023-06-19T02:34:12;20.90;99.90
14741;DHT22;7462;53.530;9.414;2023-06-19T02:36:40;20.90;99.90
14741;DHT22;7462;53.530;9.414;2023-06-19T02:39:09;20.80;99.90
14741;DHT22;7462;53.530;9.414;2023-06-19T02:41:37;20.80;99.90
14741;DHT22;7462;53.530;9.414;2023-06-19T02:44:05;20.80;99.90
14741;DHT22;7462;53.530;9.414;2023-06-19T02:46:34;20.80;99.90
14741;DHT22;7462;53.530;9.414;2023-06-19T02:49:02;20.80;99.90
14741;DHT22;7462;53.530;9.414;2023-06-19T02:51:30;20.80;99.90
14741;DHT22;7462;53.530;9.414;2023-06-19T02:53:58;20.80;99.90
14741;DHT22;7462;53.530;9.414;2023-06-19T02:56:26;20.70;99.90
14741;DHT22;7462;53.530;9.414;2023-06-19T02:58:55;20.80;99.90
14741;DHT22;7462;53.530;9.414;2023-06-19T03:01:23;20.70;99.90
14741;DHT22;7462;53.530;9.414;2023-06-19T03:03:53;20.70;99.90
14741;DHT22;7462;53.530;9.414;2023-06-19T03:06:21;20.70;99.90
14741;DHT22;7462;53.530;9.414;2023-06-19T03:08:49;20.80;99.90
14741;DHT22;7462;53.530;9.414;2023-06-19T03:11:17;20.80;99.90
14741;DHT22;7462;53.530;9.414;2023-06-19T03:13:51;20.70;99.90
14741;DHT22;7462;53.530;9.414;2023-06-19T03:16:20;20.70;99.90
14741;DHT22;7462;53.530;9.414;2023-06-19T03:18:49;20.60;99.90
14741;DHT22;7462;53.530;9.414;2023-06-19T03:21:23;20.70;99.90
14741;DHT22;7462;53.530;9.414;2023-06-19T03:23:51;20.70;99.90
14741;DHT22;7462;53.530;9.414;2023-06-19T03:26:21;20.70;99.90
14741;DHT22;7462;53.530;9.414;2023-06-19T03:28:52;20.60;99.90
14741;DHT22;7462;53.530;9.414;2023-06-19T03:31:22;20.60;99.90
14741;DHT22;7462;53.530;9.414;2023-06-19T03:33:50;20.60;99.90
14741;DHT22;7462;53.530;9.414;2023-06-19T03:36:19;20.60;99.90
14741;DHT22;7462;53.530;9.414;2023-06-19T03:38:52;20.60;99.90
14741;DHT22;7462;53.530;9.414;2023-06-19T03:41:25;20.60;99.90
14741;DHT22;7462;53.530;9.414;2023-06-19T03:43:54;20.60;99.90
14741;DHT22;7462;53.530;9.414;2023-06-19T03:46:23;20.60;99.90
14741;DHT22;7462;53.530;9.414;2023-06-19T03:48:52;20.70;99.90
14741;DHT22;7462;53.530;9.414;2023-06-19T03:51:21;20.70;99.90
14741;DHT22;7462;53.530;9.414;2023-06-19T03:53:49;20.60;99.90
14741;DHT22;7462;53.530;9.414;2023-06-19T03:56:19;20.70;99.90
14741;DHT22;7462;53.530;9.414;2023-06-19T03:58:47;20.70;99.90
14741;DHT22;7462;53.530;9.414;2023-06-19T04:01:15;20.70;99.90
14741;DHT22;7462;53.530;9.414;2023-06-19T04:03:43;20.70;99.90
14741;DHT22;7462;53.530;9.414;2023-06-19T04:06:11;20.70;99.90
14741;DHT22;7462;53.530;9.414;2023-06-19T04:08:39;20.70;99.90
14741;DHT22;7462;53.530;9.414;2023-06-19T04:11:11;20.70;99.90
14741;DHT22;7462;53.530;9.414;2023-06-19T04:13:40;20.80;99.90
14741;DHT22;7462;53.530;9.414;2023-06-19T04:16:08;20.80;99.90
14741;DHT22;7462;53.530;9.414;2023-06-19T04:18:36;20.80;99.90
14741;DHT22;7462;53.530;9.414;2023-06-19T04:21:04;20.80;99.90
14741;DHT22;7462;53.530;9.414;2023-06-19T04:23:32;20.80;99.90
14741;DHT22;7462;53.530;9.414;2023-06-19T04:26:01;20.80;99.90
14741;DHT22;7462;53.530;9.414;2023-06-19T04:28:29;20.90;99.90
14741;DHT22;7462;53.530;9.414;2023-06-19T04:30:58;20.80;99.90
14741;DHT22;7462;53.530;9.414;2023-06-19T04:33:28;20.80;99.90
14741;DHT22;7462;53.530;9.414;2023-06-19T04:35:56;20.90;99.90
14741;DHT22;7462;53.530;9.414;2023-06-19T04:38:24;20.80;99.90
14741;DHT22;7462;53.530;9.414;2023-06-19T04:40:53;20.80;99.90
14741;DHT22;7462;53.530;9.414;2023-06-19T04:43:21;20.90;99.90
14741;DHT22;7462;53.530;9.414;2023-06-19T04:45:51;20.90;99.90
14741;DHT22;7462;53.530;9.414;2023-06-19T04:48:20;20.90;99.90
14741;DHT22;7462;53.530;9.414;2023-06-19T04:50:51;20.90;99.90
14741;DHT22;7462;53.530;9.414;2023-06-19T04:53:23;20.90;99.90
14741;DHT22;7462;53.530;9.414;2023-06-19T04:55:51;20.90;99.90
14741;DHT22;7462;53.530;9.414;2023-06-19T04:58:21;20.90;99.90
14741;DHT22;7462;53.530;9.414;2023-06-19T05:00:49;20.90;99.90
14741;DHT22;7462;53.530;9.414;2023-06-19T05:03:20;20.90;99.90
14741;DHT22;7462;53.530;9.414;2023-06-19T05:05:49;20.80;99.90
14741;DHT22;7462;53.530;9.414;2023-06-19T05:08:17;20.90;99.90
14741;DHT22;7462;53.530;9.414;2023-06-19T05:10:45;20.90;99.90
14741;DHT22;7462;53.530;9.414;2023-06-19T05:13:13;20.90;99.90
14741;DHT22;7462;53.530;9.414;2023-06-19T05:15:41;20.90;99.90
14741;DHT22;7462;53.530;9.414;2023-06-19T05:18:09;20.80;99.90
14741;DHT22;7462;53.530;9.414;2023-06-19T05:20:38;20.80;99.90
14741;DHT22;7462;53.530;9.414;2023-06-19T05:23:06;20.80;99.90
14741;DHT22;7462;53.530;9.414;2023-06-19T05:25:35;20.90;99.90
14741;DHT22;7462;53.530;9.414;2023-06-19T05:28:03;20.80;99.90
14741;DHT22;7462;53.530;9.414;2023-06-19T05:30:32;20.70;99.90
14741;DHT22;7462;53.530;9.414;2023-06-19T05:33:01;20.60;99.90
14741;DHT22;7462;53.530;9.414;2023-06-19T05:35:29;20.60;99.90
14741;DHT22;7462;53.530;9.414;2023-06-19T05:37:59;20.40;99.90
14741;DHT22;7462;53.530;9.414;2023-06-19T05:40:27;20.40;99.90
14741;DHT22;7462;53.530;9.414;2023-06-19T05:42:56;20.30;99.90
14741;DHT22;7462;53.530;9.414;2023-06-19T05:45:24;20.30;99.90
14741;DHT22;7462;53.530;9.414;2023-06-19T05:47:52;20.20;99.90
14741;DHT22;7462;53.530;9.414;2023-06-19T05:50:20;20.20;99.90
14741;DHT22;7462;53.530;9.414;2023-06-19T05:52:48;20.20;99.90
14741;DHT22;7462;53.530;9.414;2023-06-19T05:55:18;20.20;99.90
14741;DHT22;7462;53.530;9.414;2023-06-19T05:57:46;20.20;99.90
14741;DHT22;7462;53.530;9.414;2023-06-19T06:00:15;20.30;99.90
14741;DHT22;7462;53.530;9.414;2023-06-19T06:02:43;20.30;99.90
14741;DHT22;7462;53.530;9.414;2023-06-19T06:05:11;20.30;99.90
14741;DHT22;7462;53.530;9.414;2023-06-19T06:07:39;20.30;99.90
14741;DHT22;7462;53.530;9.414;2023-06-19T06:10:08;20.20;99.90
14741;DHT22;7462;53.530;9.414;2023-06-19T06:12:38;20.30;99.90
14741;DHT22;7462;53.530;9.414;2023-06-19T06:15:07;20.30;99.90
14741;DHT22;7462;53.530;9.414;2023-06-19T06:17:35;20.30;99.90
14741;DHT22;7462;53.530;9.414;2023-06-19T06:20:03;20.40;99.90
14741;DHT22;7462;53.530;9.414;2023-06-19T06:22:36;20.50;99.90
14741;DHT22;7462;53.530;9.414;2023-06-19T06:25:05;20.50;99.90
14741;DHT22;7462;53.530;9.414;2023-06-19T06:27:35;20.40;99.90
14741;DHT22;7462;53.530;9.414;2023-06-19T06:30:05;20.40;99.90
14741;DHT22;7462;53.530;9.414;2023-06-19T06:32:33;20.30;99.90
14741;DHT22;7462;53.530;9.414;2023-06-19T06:35:02;20.30;99.90
14741;DHT22;7462;53.530;9.414;2023-06-19T06:37:30;20.20;99.90
14741;DHT22;7462;53.530;9.414;2023-06-19T06:39:58;20.20;99.90
14741;DHT22;7462;53.530;9.414;2023-06-19T06:42:26;20.20;99.90
14741;DHT22;7462;53.530;9.414;2023-06-19T06:44:55;20.10;99.90
14741;DHT22;7462;53.530;9.414;2023-06-19T06:47:24;20.10;99.90
14741;DHT22;7462;53.530;9.414;2023-06-19T06:49:52;20.10;99.90
14741;DHT22;7462;53.530;9.414;2023-06-19T06:52:20;20.20;99.90
14741;DHT22;7462;53.530;9.414;2023-06-19T06:54:48;20.20;99.90
14741;DHT22;7462;53.530;9.414;2023-06-19T06:57:16;20.20;99.90
14741;DHT22;7462;53.530;9.414;2023-06-19T06:59:44;20.20;99.90
14741;DHT22;7462;53.530;9.414;2023-06-19T07:02:12;20.30;99.90
14741;DHT22;7462;53.530;9.414;2023-06-19T07:04:42;20.40;99.90
14741;DHT22;7462;53.530;9.414;2023-06-19T07:07:10;20.40;99.90
14741;DHT22;7462;53.530;9.414;2023-06-19T07:09:38;20.40;99.90
14741;DHT22;7462;53.530;9.414;2023-06-19T07:12:07;20.50;99.90
14741;DHT22;7462;53.530;9.414;2023-06-19T07:14:35;20.50;99.90
14741;DHT22;7462;53.530;9.414;2023-06-19T07:17:04;20.50;99.90
14741;DHT22;7462;53.530;9.414;2023-06-19T07:19:34;20.60;99.90
14741;DHT22;7462;53.530;9.414;2023-06-19T07:22:04;20.70;99.90
14741;DHT22;7462;53.530;9.414;2023-06-19T07:24:32;20.80;99.90
14741;DHT22;7462;53.530;9.414;2023-06-19T07:27:00;20.90;99.90
14741;DHT22;7462;53.530;9.414;2023-06-19T07:29:28;21.00;99.90
14741;DHT22;7462;53.530;9.414;2023-06-19T07:31:56;21.10;99.90
14741;DHT22;7462;53.530;9.414;2023-06-19T07:34:24;21.20;99.90
14741;DHT22;7462;53.530;9.414;2023-06-19T07:36:52;21.20;99.90
14741;DHT22;7462;53.530;9.414;2023-06-19T07:39:21;21.30;99.90
14741;DHT22;7462;53.530;9.414;2023-06-19T07:41:49;21.60;99.90
14741;DHT22;7462;53.530;9.414;2023-06-19T07:44:17;22.00;99.90
14741;DHT22;7462;53.530;9.414;2023-06-19T07:46:47;22.40;99.90
14741;DHT22;7462;53.530;9.414;2023-06-19T07:49:15;22.70;99.90
14741;DHT22;7462;53.530;9.414;2023-06-19T07:51:43;22.80;99.90
14741;DHT22;7462;53.530;9.414;2023-06-19T07:54:12;22.80;99.90
14741;DHT22;7462;53.530;9.414;2023-06-19T07:56:42;23.00;99.90
14741;DHT22;7462;53.530;9.414;2023-06-19T07:59:10;23.10;99.90
14741;DHT22;7462;53.530;9.414;2023-06-19T08:01:38;23.50;99.90
14741;DHT22;7462;53.530;9.414;2023-06-19T08:04:06;23.80;99.90
14741;DHT22;7462;53.530;9.414;2023-06-19T08:06:34;24.10;99.90
14741;DHT22;7462;53.530;9.414;2023-06-19T08:09:02;24.40;99.90
14741;DHT22;7462;53.530;9.414;2023-06-19T08:11:30;24.60;99.90
14741;DHT22;7462;53.530;9.414;2023-06-19T08:14:00;24.80;99.90
14741;DHT22;7462;53.530;9.414;2023-06-19T08:16:28;24.80;99.90
14741;DHT22;7462;53.530;9.414;2023-06-19T08:18:56;24.80;99.90
14741;DHT22;7462;53.530;9.414;2023-06-19T08:21:24;25.00;99.90
14741;DHT22;7462;53.530;9.414;2023-06-19T08:23:52;25.30;99.90
14741;DHT22;7462;53.530;9.414;2023-06-19T08:26:20;25.60;99.90
14741;DHT22;7462;53.530;9.414;2023-06-19T08:28:48;25.80;99.90
14741;DHT22;7462;53.530;9.414;2023-06-19T08:31:17;26.50;99.90
14741;DHT22;7462;53.530;9.414;2023-06-19T08:33:46;27.20;99.90
14741;DHT22;7462;53.530;9.414;2023-06-19T08:36:20;27.50;99.90
14741;DHT22;7462;53.530;9.414;2023-06-19T08:38:48;28.10;99.90
14741;DHT22;7462;53.530;9.414;2023-06-19T08:41:17;28.60;99.90
14741;DHT22;7462;53.530;9.414;2023-06-19T08:43:46;28.50;99.90
14741;DHT22;7462;53.530;9.414;2023-06-19T08:46:15;28.90;99.90
14741;DHT22;7462;53.530;9.414;2023-06-19T08:48:47;29.50;99.90
14741;DHT22;7462;53.530;9.414;2023-06-19T08:51:15;29.20;99.90
14741;DHT22;7462;53.530;9.414;2023-06-19T08:53:47;29.10;99.90
14741;DHT22;7462;53.530;9.414;2023-06-19T08:56:17;28.60;99.90
14741;DHT22;7462;53.530;9.414;2023-06-19T08:58:45;28.50;99.90
14741;DHT22;7462;53.530;9.414;2023-06-19T09:01:17;28.60;99.90
14741;DHT22;7462;53.530;9.414;2023-06-19T09:03:46;28.70;99.90
14741;DHT22;7462;53.530;9.414;2023-06-19T09:06:18;28.60;99.90
14741;DHT22;7462;53.530;9.414;2023-06-19T09:08:57;28.70;99.90
14741;DHT22;7462;53.530;9.414;2023-06-19T09:11:25;29.10;99.90
14741;DHT22;7462;53.530;9.414;2023-06-19T09:13:56;29.50;99.90
14741;DHT22;7462;53.530;9.414;2023-06-19T09:16:36;29.50;99.90
14741;DHT22;7462;53.530;9.414;2023-06-19T09:19:06;29.10;99.90
14741;DHT22;7462;53.530;9.414;2023-06-19T09:21:36;29.20;99.90
14741;DHT22;7462;53.530;9.414;2023-06-19T09:24:06;28.90;99.90
14741;DHT22;7462;53.530;9.414;2023-06-19T09:26:36;28.80;99.90
14741;DHT22;7462;53.530;9.414;2023-06-19T09:29:11;28.80;99.90
14741;DHT22;7462;53.530;9.414;2023-06-19T09:31:42;28.70;99.90
14741;DHT22;7462;53.530;9.414;2023-06-19T09:34:11;28.70;99.90
14741;DHT22;7462;53.530;9.414;2023-06-19T09:36:40;28.80;99.90
14741;DHT22;7462;53.530;9.414;2023-06-19T09:39:09;28.90;99.90
14741;DHT22;7462;53.530;9.414;2023-06-19T09:41:38;29.20;99.90
14741;DHT22;7462;53.530;9.414;2023-06-19T09:44:07;29.90;99.90
14741;DHT22;7462;53.530;9.414;2023-06-19T09:46:41;30.20;99.90
14741;DHT22;7462;53.530;9.414;2023-06-19T09:49:15;29.90;99.90
14741;DHT22;7462;53.530;9.414;2023-06-19T09:51:43;29.80;99.90
14741;DHT22;7462;53.530;9.414;2023-06-19T09:54:14;29.80;99.90
14741;DHT22;7462;53.530;9.414;2023-06-19T09:56:42;29.80;99.90
14741;DHT22;7462;53.530;9.414;2023-06-19T09:59:11;30.20;99.90
14741;DHT22;7462;53.530;9.414;2023-06-19T10:01:40;31.20;99.90
14741;DHT22;7462;53.530;9.414;2023-06-19T10:04:09;31.90;99.90
14741;DHT22;7462;53.530;9.414;2023-06-19T10:06:47;32.70;99.90
14741;DHT22;7462;53.530;9.414;2023-06-19T10:09:16;33.80;99.90
14741;DHT22;7462;53.530;9.414;2023-06-19T10:11:47;34.10;99.90
14741;DHT22;7462;53.530;9.414;2023-06-19T10:14:15;34.00;99.00
14741;DHT22;7462;53.530;9.414;2023-06-19T10:16:45;34.50;97.60
14741;DHT22;7462;53.530;9.414;2023-06-19T10:19:15;34.40;98.50
14741;DHT22;7462;53.530;9.414;2023-06-19T10:21:47;34.00;97.00
14741;DHT22;7462;53.530;9.414;2023-06-19T10:24:17;33.80;97.20
14741;DHT22;7462;53.530;9.414;2023-06-19T10:26:58;33.40;97.30
14741;DHT22;7462;53.530;9.414;2023-06-19T10:29:26;33.20;97.80
14741;DHT22;7462;53.530;9.414;2023-06-19T10:32:06;32.70;98.00
14741;DHT22;7462;53.530;9.414;2023-06-19T10:34:35;32.70;98.50
14741;DHT22;7462;53.530;9.414;2023-06-19T10:37:04;33.00;97.80
14741;DHT22;7462;53.530;9.414;2023-06-19T10:39:33;33.20;97.70
14741;DHT22;7462;53.530;9.414;2023-06-19T10:42:04;33.70;96.90
14741;DHT22;7462;53.530;9.414;2023-06-19T10:44:32;33.40;96.60
14741;DHT22;7462;53.530;9.414;2023-06-19T10:47:01;32.80;97.30
14741;DHT22;7462;53.530;9.414;2023-06-19T10:49:29;32.70;98.00
14741;DHT22;7462;53.530;9.414;2023-06-19T10:51:59;32.40;98.10
14741;DHT22;7462;53.530;9.414;2023-06-19T10:54:29;32.10;98.30
14741;DHT22;7462;53.530;9.414;2023-06-19T10:56:58;32.00;98.70
14741;DHT22;7462;53.530;9.414;2023-06-19T10:59:29;31.80;98.70
14741;DHT22;7462;53.530;9.414;2023-06-19T11:01:57;31.40;99.20
14741;DHT22;7462;53.530;9.414;2023-06-19T11:04:26;31.20;99.80
14741;DHT22;7462;53.530;9.414;2023-06-19T11:06:54;31.00;99.90
14741;DHT22;7462;53.530;9.414;2023-06-19T11:09:22;30.70;99.90
14741;DHT22;7462;53.530;9.414;2023-06-19T11:11:52;30.60;99.90
14741;DHT22;7462;53.530;9.414;2023-06-19T11:14:20;30.40;99.90
14741;DHT22;7462;53.530;9.414;2023-06-19T11:16:48;30.30;99.90
14741;DHT22;7462;53.530;9.414;2023-06-19T11:19:18;30.20;99.90
14741;DHT22;7462;53.530;9.414;2023-06-19T11:21:48;30.00;99.90
14741;DHT22;7462;53.530;9.414;2023-06-19T11:24:17;29.90;99.90
14741;DHT22;7462;53.530;9.414;2023-06-19T11:26:47;29.70;99.90
14741;DHT22;7462;53.530;9.414;2023-06-19T11:29:20;29.80;99.90
14741;DHT22;7462;53.530;9.414;2023-06-19T11:31:49;29.70;99.90
14741;DHT22;7462;53.530;9.414;2023-06-19T11:34:31;29.70;99.90
14741;DHT22;7462;53.530;9.414;2023-06-19T11:36:59;29.70;99.90
14741;DHT22;7462;53.530;9.414;2023-06-19T11:39:28;29.70;99.90
14741;DHT22;7462;53.530;9.414;2023-06-19T11:41:58;30.10;99.90
14741;DHT22;7462;53.530;9.414;2023-06-19T11:44:28;30.40;99.90
14741;DHT22;7462;53.530;9.414;2023-06-19T11:46:57;30.60;99.90
14741;DHT22;7462;53.530;9.414;2023-06-19T11:49:26;30.40;99.90
14741;DHT22;7462;53.530;9.414;2023-06-19T11:51:55;30.60;99.90
14741;DHT22;7462;53.530;9.414;2023-06-19T11:54:24;31.40;99.90
14741;DHT22;7462;53.530;9.414;2023-06-19T11:56:52;31.70;99.90
14741;DHT22;7462;53.530;9.414;2023-06-19T11:59:20;31.90;99.90
14741;DHT22;7462;53.530;9.414;2023-06-19T12:01:49;32.40;99.90
14741;DHT22;7462;53.530;9.414;2023-06-19T12:04:17;32.40;99.90
14741;DHT22;7462;53.530;9.414;2023-06-19T12:06:46;32.00;99.90
14741;DHT22;7462;53.530;9.414;2023-06-19T12:09:14;31.60;99.90
14741;DHT22;7462;53.530;9.414;2023-06-19T12:11:42;31.00;99.90
14741;DHT22;7462;53.530;9.414;2023-06-19T12:14:10;30.50;99.90
14741;DHT22;7462;53.530;9.414;2023-06-19T12:16:38;30.20;99.90
14741;DHT22;7462;53.530;9.414;2023-06-19T12:19:07;30.00;99.90
14741;DHT22;7462;53.530;9.414;2023-06-19T12:21:35;30.00;99.90
14741;DHT22;7462;53.530;9.414;2023-06-19T12:24:08;30.00;99.90
14741;DHT22;7462;53.530;9.414;2023-06-19T12:26:37;29.80;99.90
14741;DHT22;7462;53.530;9.414;2023-06-19T12:29:05;29.60;99.90
14741;DHT22;7462;53.530;9.414;2023-06-19T12:31:34;29.20;99.90
14741;DHT22;7462;53.530;9.414;2023-06-19T12:34:04;29.00;99.90
14741;DHT22;7462;53.530;9.414;2023-06-19T12:36:54;29.00;99.90
14741;DHT22;7462;53.530;9.414;2023-06-19T12:39:23;29.10;99.90
14741;DHT22;7462;53.530;9.414;2023-06-19T12:41:52;29.30;99.90
14741;DHT22;7462;53.530;9.414;2023-06-19T12:44:21;29.50;99.90
14741;DHT22;7462;53.530;9.414;2023-06-19T12:46:50;29.80;99.90
14741;DHT22;7462;53.530;9.414;2023-06-19T12:49:18;29.90;99.90
14741;DHT22;7462;53.530;9.414;2023-06-19T12:51:46;29.70;99.90
14741;DHT22;7462;53.530;9.414;2023-06-19T12:54:19;29.70;99.90
14741;DHT22;7462;53.530;9.414;2023-06-19T12:56:47;29.90;99.90
14741;DHT22;7462;53.530;9.414;2023-06-19T12:59:16;30.00;99.90
14741;DHT22;7462;53.530;9.414;2023-06-19T13:01:44;30.00;99.90
14741;DHT22;7462;53.530;9.414;2023-06-19T13:04:12;30.10;99.90
14741;DHT22;7462;53.530;9.414;2023-06-19T13:06:41;29.60;99.90
14741;DHT22;7462;53.530;9.414;2023-06-19T13:09:09;29.20;99.90
14741;DHT22;7462;53.530;9.414;2023-06-19T13:11:39;29.10;99.90
14741;DHT22;7462;53.530;9.414;2023-06-19T13:14:07;28.90;99.90
14741;DHT22;7462;53.530;9.414;2023-06-19T13:16:35;28.90;99.90
14741;DHT22;7462;53.530;9.414;2023-06-19T13:19:06;29.00;99.90
14741;DHT22;7462;53.530;9.414;2023-06-19T13:21:34;29.20;99.90
14741;DHT22;7462;53.530;9.414;2023-06-19T13:24:03;29.10;99.90
14741;DHT22;7462;53.530;9.414;2023-06-19T13:26:32;29.10;99.90
14741;DHT22;7462;53.530;9.414;2023-06-19T13:29:01;28.90;99.90
14741;DHT22;7462;53.530;9.414;2023-06-19T13:31:29;28.80;99.90
14741;DHT22;7462;53.530;9.414;2023-06-19T13:33:57;28.70;99.90
14741;DHT22;7462;53.530;9.414;2023-06-19T13:36:25;28.80;99.90
14741;DHT22;7462;53.530;9.414;2023-06-19T13:38:54;28.90;99.90
14741;DHT22;7462;53.530;9.414;2023-06-19T13:41:22;29.10;99.90
14741;DHT22;7462;53.530;9.414;2023-06-19T13:43:51;29.30;99.90
14741;DHT22;7462;53.530;9.414;2023-06-19T13:46:22;29.50;99.90
14741;DHT22;7462;53.530;9.414;2023-06-19T13:48:50;29.40;99.90
14741;DHT22;7462;53.530;9.414;2023-06-19T13:51:19;29.10;99.90
14741;DHT22;7462;53.530;9.414;2023-06-19T13:53:48;29.10;99.90
14741;DHT22;7462;53.530;9.414;2023-06-19T13:56:17;29.20;99.90
14741;DHT22;7462;53.530;9.414;2023-06-19T13:58:45;29.00;99.90
14741;DHT22;7462;53.530;9.414;2023-06-19T14:01:13;29.00;99.90
14741;DHT22;7462;53.530;9.414;2023-06-19T14:03:42;28.90;99.90
14741;DHT22;7462;53.530;9.414;2023-06-19T14:06:10;29.10;99.90
14741;DHT22;7462;53.530;9.414;2023-06-19T14:08:39;29.30;99.90
14741;DHT22;7462;53.530;9.414;2023-06-19T14:11:07;29.40;99.90
14741;DHT22;7462;53.530;9.414;2023-06-19T14:13:35;29.30;99.90
14741;DHT22;7462;53.530;9.414;2023-06-19T14:16:03;29.30;99.90
14741;DHT22;7462;53.530;9.414;2023-06-19T14:18:31;29.30;99.90
14741;DHT22;7462;53.530;9.414;2023-06-19T14:21:01;29.50;99.90
14741;DHT22;7462;53.530;9.414;2023-06-19T14:23:29;29.50;99.90
14741;DHT22;7462;53.530;9.414;2023-06-19T14:25:57;29.50;99.90
14741;DHT22;7462;53.530;9.414;2023-06-19T14:28:25;29.30;99.90
14741;DHT22;7462;53.530;9.414;2023-06-19T14:30:53;29.40;99.90
14741;DHT22;7462;53.530;9.414;2023-06-19T14:33:21;29.20;99.90
14741;DHT22;7462;53.530;9.414;2023-06-19T14:35:49;29.30;99.90
14741;DHT22;7462;53.530;9.414;2023-06-19T14:38:20;29.10;99.90
14741;DHT22;7462;53.530;9.414;2023-06-19T14:40:48;28.90;99.90
14741;DHT22;7462;53.530;9.414;2023-06-19T14:43:17;29.00;99.90
14741;DHT22;7462;53.530;9.414;2023-06-19T14:45:45;28.80;99.90
14741;DHT22;7462;53.530;9.414;2023-06-19T14:48:13;28.80;99.90
14741;DHT22;7462;53.530;9.414;2023-06-19T14:50:43;28.90;99.90
14741;DHT22;7462;53.530;9.414;2023-06-19T14:53:11;28.90;99.90
14741;DHT22;7462;53.530;9.414;2023-06-19T14:55:40;28.80;99.90
14741;DHT22;7462;53.530;9.414;2023-06-19T14:58:12;28.80;99.90
14741;DHT22;7462;53.530;9.414;2023-06-19T15:00:40;28.80;99.90
14741;DHT22;7462;53.530;9.414;2023-06-19T15:03:09;28.90;99.90
14741;DHT22;7462;53.530;9.414;2023-06-19T15:05:37;28.80;99.90
14741;DHT22;7462;53.530;9.414;2023-06-19T15:08:06;28.80;99.90
14741;DHT22;7462;53.530;9.414;2023-06-19T15:10:36;28.80;99.90
14741;DHT22;7462;53.530;9.414;2023-06-19T15:13:05;28.90;99.90
14741;DHT22;7462;53.530;9.414;2023-06-19T15:15:33;28.90;99.90
14741;DHT22;7462;53.530;9.414;2023-06-19T15:18:02;28.70;99.90
14741;DHT22;7462;53.530;9.414;2023-06-19T15:20:30;28.70;99.90
14741;DHT22;7462;53.530;9.414;2023-06-19T15:22:58;28.80;99.90
14741;DHT22;7462;53.530;9.414;2023-06-19T15:25:26;28.60;99.90
14741;DHT22;7462;53.530;9.414;2023-06-19T15:27:54;28.40;99.90
14741;DHT22;7462;53.530;9.414;2023-06-19T15:30:23;28.30;99.90
14741;DHT22;7462;53.530;9.414;2023-06-19T15:32:52;28.30;99.90
14741;DHT22;7462;53.530;9.414;2023-06-19T15:35:21;28.10;99.90
14741;DHT22;7462;53.530;9.414;2023-06-19T15:37:49;28.20;99.90
14741;DHT22;7462;53.530;9.414;2023-06-19T15:40:17;28.30;99.90
14741;DHT22;7462;53.530;9.414;2023-06-19T15:42:45;28.20;99.90
14741;DHT22;7462;53.530;9.414;2023-06-19T15:45:13;28.00;99.90
14741;DHT22;7462;53.530;9.414;2023-06-19T15:47:42;28.00;99.90
14741;DHT22;7462;53.530;9.414;2023-06-19T15:50:10;28.10;99.90
14741;DHT22;7462;53.530;9.414;2023-06-19T15:52:38;28.10;99.90
14741;DHT22;7462;53.530;9.414;2023-06-19T15:55:07;28.10;99.90
14741;DHT22;7462;53.530;9.414;2023-06-19T15:57:35;27.80;99.90